Mexico City, DIF, Mexico
Current Conditions -  °F | °C
As of 9:44 AM on Friday 19 Dec 2014 (Local Time) from MMMX Reporting Station
Clear Clear  
Wind Chill: 64°   Ceiling: Unl
Heat Index: 64°   Visibility: 4mi
Dew Point: 45°   Wind: 3mph
Humidity: 49%   Direction: 180°S
Pressure: 30.35"   Gusts: NA
Location:  19.43°N, 99.14°W
Report Text: MMMX 191544Z 18003KT 4SM SKC 18/07 A3035 NOSIG RMK HZY SC
Loading
Personal Weather Stations






























Interactive Weather Map New forecast layout! Learn more

10-Day Weather Forecast

Advertisements
Track Severe Weather on mobile